Time;durP1;ratioP1;P1;durP2;ratioP2;P2;SDS_P1;SDS_P2;PMS_P1;PMS_P2;Temp;Humidity;BMP_temperature;BMP_pressure;BME280_temperature;BME280_humidity;BME280_pressure;Samples;Min_cycle;Max_cycle;Signal;HPM_P1;HPM_P2
2022/04/03 00:00:34;;;;;;;10.30;3.40;;;;;;;;;;5019563;28;20334;-76
2022/04/03 00:03:02;;;;;;;8.13;3.53;;;;;;;;;;5018184;28;20034;-75
2022/04/03 00:05:28;;;;;;;5.63;3.33;;;;;;;;;;5022016;28;20045;-77
2022/04/03 00:07:56;;;;;;;9.73;3.47;;;;;;;;;;5017938;28;20025;-76
2022/04/03 00:10:22;;;;;;;6.97;3.30;;;;;;;;;;5012979;28;20041;-75
2022/04/03 00:12:48;;;;;;;4.83;3.47;;;;;;;;;;5015165;28;20034;-75
2022/04/03 00:15:14;;;;;;;4.77;3.77;;;;;;;;;;5001006;28;20046;-75
2022/04/03 00:17:41;;;;;;;6.63;4.47;;;;;;;;;;5003276;28;20561;-77
2022/04/03 00:20:08;;;;;;;6.70;3.53;;;;;;;;;;5017805;28;20033;-77
2022/04/03 00:22:34;;;;;;;5.43;4.03;;;;;;;;;;5019596;28;20034;-77
2022/04/03 00:24:59;;;;;;;4.47;3.10;;;;;;;;;;4998058;28;20041;-76
2022/04/03 00:27:26;;;;;;;9.50;4.10;;;;;;;;;;5017970;28;20030;-75
2022/04/03 00:29:52;;;;;;;6.00;3.80;;;;;;;;;;5019191;28;20053;-75
2022/04/03 00:32:18;;;;;;;4.33;3.53;;;;;;;;;;5014423;28;20042;-75
2022/04/03 00:34:43;;;;;;;5.37;3.70;;;;;;;;;;5017604;28;20048;-77
2022/04/03 00:37:09;;;;;;;9.17;4.07;;;;;;;;;;5014874;28;20068;-74
2022/04/03 00:39:34;;;;;;;8.00;3.60;;;;;;;;;;5002438;28;20484;-75
2022/04/03 00:42:00;;;;;;;13.43;4.03;;;;;;;;;;4999745;28;20453;-75
2022/04/03 00:44:26;;;;;;;9.90;3.60;;;;;;;;;;4996380;28;20038;-74
2022/04/03 00:46:52;;;;;;;5.57;2.93;;;;;;;;;;5019265;28;20040;-75
2022/04/03 00:49:17;;;;;;;5.57;3.20;;;;;;;;;;5013036;28;20037;-75
2022/04/03 00:51:43;;;;;;;6.20;3.57;;;;;;;;;;5015045;28;20057;-76
2022/04/03 00:54:09;;;;;;;9.03;3.50;;;;;;;;;;5017356;28;20044;-75
2022/04/03 00:56:35;;;;;;;10.93;4.17;;;;;;;;;;5015668;28;20084;-76
2022/04/03 00:59:01;;;;;;;7.07;3.70;;;;;;;;;;5020322;28;20034;-75
2022/04/03 01:01:26;;;;;;;10.90;3.80;;;;;;;;;;5019991;28;20108;-76
2022/04/03 01:03:52;;;;;;;5.53;3.43;;;;;;;;;;5013587;28;20470;-75
2022/04/03 01:06:18;;;;;;;6.33;2.93;;;;;;;;;;5017695;28;20030;-76
2022/04/03 01:08:43;;;;;;;6.47;3.97;;;;;;;;;;5021215;28;20041;-77
2022/04/03 01:11:13;;;;;;;4.40;3.40;;;;;;;;;;5000811;28;20026;-76
2022/04/03 01:13:46;;;;;;;8.13;4.37;;;;;;;;;;5003024;28;20052;-77
2022/04/03 01:16:12;;;;;;;7.07;4.10;;;;;;;;;;5027566;28;20033;-75
2022/04/03 01:18:37;;;;;;;8.53;3.47;;;;;;;;;;5011819;28;20498;-76
2022/04/03 01:21:03;;;;;;;6.47;3.67;;;;;;;;;;5011603;28;20369;-77
2022/04/03 01:23:28;;;;;;;9.00;3.87;;;;;;;;;;5025683;28;20564;-76
2022/04/03 01:25:54;;;;;;;5.20;3.07;;;;;;;;;;5025198;28;20410;-75
2022/04/03 01:28:20;;;;;;;6.43;3.63;;;;;;;;;;5025188;28;20129;-75
2022/04/03 01:30:45;;;;;;;8.70;3.83;;;;;;;;;;5008847;28;20029;-76
2022/04/03 01:33:11;;;;;;;5.57;3.63;;;;;;;;;;5025599;28;20065;-75
2022/04/03 01:35:36;;;;;;;5.50;3.57;;;;;;;;;;5025968;28;20117;-75
2022/04/03 01:38:02;;;;;;;5.23;3.60;;;;;;;;;;5011984;28;20042;-75
2022/04/03 01:40:28;;;;;;;4.83;3.47;;;;;;;;;;5025484;28;20406;-76
2022/04/03 01:42:53;;;;;;;7.80;3.87;;;;;;;;;;5025278;28;20030;-75
2022/04/03 01:45:20;;;;;;;7.30;3.87;;;;;;;;;;5025368;28;20034;-74
2022/04/03 01:47:46;;;;;;;3.57;3.27;;;;;;;;;;5025089;28;20053;-76
2022/04/03 01:50:11;;;;;;;6.47;3.23;;;;;;;;;;5025572;28;20426;-76
2022/04/03 01:52:37;;;;;;;6.70;3.90;;;;;;;;;;5011455;28;20034;-76
2022/04/03 01:55:03;;;;;;;3.70;2.97;;;;;;;;;;5025924;28;20034;-76
2022/04/03 01:57:28;;;;;;;10.67;3.93;;;;;;;;;;5025210;28;20091;-75
2022/04/03 01:59:54;;;;;;;9.40;3.80;;;;;;;;;;5025024;28;20436;-75
2022/04/03 02:02:19;;;;;;;6.07;3.70;;;;;;;;;;5025119;28;20500;-76
2022/04/03 02:04:46;;;;;;;7.10;3.27;;;;;;;;;;5024871;28;20037;-76
2022/04/03 02:07:12;;;;;;;7.37;4.13;;;;;;;;;;5008716;28;20030;-76
2022/04/03 02:09:38;;;;;;;8.80;3.73;;;;;;;;;;5024817;28;20371;-76
2022/04/03 02:12:05;;;;;;;6.83;4.30;;;;;;;;;;5008655;28;20144;-76
2022/04/03 02:14:30;;;;;;;6.17;3.90;;;;;;;;;;5024533;28;20033;-75
2022/04/03 02:16:57;;;;;;;6.90;4.77;;;;;;;;;;5024818;28;20486;-75
2022/04/03 02:19:23;;;;;;;8.80;4.43;;;;;;;;;;5008536;28;20468;-75
2022/04/03 02:21:49;;;;;;;9.00;3.90;;;;;;;;;;5009147;28;20030;-75
2022/04/03 02:24:15;;;;;;;6.70;4.07;;;;;;;;;;5008086;28;20030;-76
2022/04/03 02:26:41;;;;;;;7.50;4.63;;;;;;;;;;5009542;28;20470;-76
2022/04/03 02:29:06;;;;;;;7.57;3.83;;;;;;;;;;5009493;28;20048;-75
2022/04/03 02:31:32;;;;;;;6.10;3.90;;;;;;;;;;5024327;28;20038;-75
2022/04/03 02:33:58;;;;;;;7.73;3.70;;;;;;;;;;5024708;28;20036;-76
2022/04/03 02:36:24;;;;;;;8.80;4.63;;;;;;;;;;5024811;28;20026;-75
2022/04/03 02:38:51;;;;;;;8.20;4.67;;;;;;;;;;5008251;28;20061;-76
2022/04/03 02:41:16;;;;;;;7.07;3.87;;;;;;;;;;5008576;28;20042;-76
2022/04/03 02:43:42;;;;;;;8.13;4.70;;;;;;;;;;5024590;28;20036;-76
2022/04/03 02:46:09;;;;;;;3.80;3.20;;;;;;;;;;5008959;28;20060;-76
2022/04/03 02:48:34;;;;;;;7.00;4.27;;;;;;;;;;5011145;28;20038;-75
2022/04/03 02:51:01;;;;;;;8.43;3.83;;;;;;;;;;5009655;28;20026;-76
2022/04/03 02:53:27;;;;;;;5.80;3.23;;;;;;;;;;5024666;28;20022;-76
2022/04/03 02:55:53;;;;;;;4.97;3.40;;;;;;;;;;5027522;28;20030;-76
2022/04/03 02:58:18;;;;;;;8.33;3.10;;;;;;;;;;5012983;28;20422;-74
2022/04/03 03:00:45;;;;;;;5.50;3.23;;;;;;;;;;5027761;28;20458;-74
2022/04/03 03:03:11;;;;;;;4.27;2.57;;;;;;;;;;5011700;28;20058;-76
2022/04/03 03:05:38;;;;;;;5.93;2.97;;;;;;;;;;5027679;28;20487;-76
2022/04/03 03:08:04;;;;;;;5.83;3.37;;;;;;;;;;5027765;28;20068;-77
2022/04/03 03:10:30;;;;;;;10.23;3.00;;;;;;;;;;5012742;28;20021;-74
2022/04/03 03:12:57;;;;;;;7.53;3.10;;;;;;;;;;5011403;28;20131;-75
2022/04/03 03:15:24;;;;;;;5.63;3.03;;;;;;;;;;5027847;28;20041;-75
2022/04/03 03:17:50;;;;;;;7.13;2.97;;;;;;;;;;5012990;28;20520;-74
2022/04/03 03:20:16;;;;;;;5.40;3.23;;;;;;;;;;5028292;28;20038;-74
2022/04/03 03:22:45;;;;;;;5.47;3.47;;;;;;;;;;5011624;28;20148;-75
2022/04/03 03:25:11;;;;;;;5.53;2.97;;;;;;;;;;5034005;28;20125;-75
2022/04/03 03:27:39;;;;;;;4.43;2.73;;;;;;;;;;5040519;28;20027;-75
2022/04/03 03:30:06;;;;;;;5.70;3.10;;;;;;;;;;5042718;28;20029;-75
2022/04/03 03:32:32;;;;;;;6.13;2.97;;;;;;;;;;5039032;28;20037;-74
2022/04/03 03:34:59;;;;;;;6.37;3.20;;;;;;;;;;5017419;28;20069;-76
2022/04/03 03:37:25;;;;;;;4.83;2.70;;;;;;;;;;5013080;28;20022;-75
2022/04/03 03:39:53;;;;;;;12.83;3.87;;;;;;;;;;5027409;28;20397;-75
2022/04/03 03:42:19;;;;;;;4.60;2.63;;;;;;;;;;5012498;28;20026;-75
2022/04/03 03:44:45;;;;;;;5.60;2.83;;;;;;;;;;5012021;28;20029;-76
2022/04/03 03:47:11;;;;;;;7.23;3.83;;;;;;;;;;5027284;28;20037;-77
2022/04/03 03:49:37;;;;;;;5.97;3.57;;;;;;;;;;5010323;28;20041;-75
2022/04/03 03:52:03;;;;;;;6.17;3.67;;;;;;;;;;5012208;28;20034;-75
2022/04/03 03:54:31;;;;;;;6.90;2.90;;;;;;;;;;5026960;28;20021;-75
2022/04/03 03:56:56;;;;;;;6.37;3.13;;;;;;;;;;5026631;28;20030;-77
2022/04/03 03:59:22;;;;;;;7.93;3.27;;;;;;;;;;5027101;28;20458;-76
2022/04/03 04:01:49;;;;;;;4.67;3.07;;;;;;;;;;5026469;28;20052;-75
2022/04/03 04:04:14;;;;;;;3.47;2.37;;;;;;;;;;5028276;28;20026;-75
2022/04/03 04:06:41;;;;;;;3.60;2.63;;;;;;;;;;5013287;28;20108;-76
2022/04/03 04:09:06;;;;;;;5.10;3.37;;;;;;;;;;5026920;28;20095;-76
2022/04/03 04:11:32;;;;;;;11.50;3.33;;;;;;;;;;5010327;28;20417;-76
2022/04/03 04:13:58;;;;;;;10.17;3.10;;;;;;;;;;5026289;28;20402;-75
2022/04/03 04:16:24;;;;;;;4.70;2.67;;;;;;;;;;5026842;28;20033;-77
2022/04/03 04:18:50;;;;;;;6.67;3.60;;;;;;;;;;5010080;28;20100;-74
2022/04/03 04:21:16;;;;;;;5.23;2.87;;;;;;;;;;5026266;28;20366;-76
2022/04/03 04:23:42;;;;;;;4.23;3.27;;;;;;;;;;5026078;28;20401;-77
2022/04/03 04:26:08;;;;;;;6.53;3.77;;;;;;;;;;5009903;28;20425;-76
2022/04/03 04:28:34;;;;;;;3.77;2.90;;;;;;;;;;5009869;28;20124;-75
2022/04/03 04:31:00;;;;;;;4.33;3.13;;;;;;;;;;5011102;28;20113;-75
2022/04/03 04:33:25;;;;;;;5.43;3.10;;;;;;;;;;5026447;28;20036;-76
2022/04/03 04:35:52;;;;;;;7.03;3.30;;;;;;;;;;5010289;28;20030;-76
2022/04/03 04:38:17;;;;;;;10.77;3.77;;;;;;;;;;5009773;28;20505;-75
2022/04/03 04:40:44;;;;;;;7.20;3.20;;;;;;;;;;5010984;28;20057;-77
2022/04/03 04:43:10;;;;;;;6.20;3.97;;;;;;;;;;5026217;28;20478;-76
2022/04/03 04:45:36;;;;;;;12.63;3.40;;;;;;;;;;5010856;28;20115;-74
2022/04/03 04:48:01;;;;;;;6.80;3.17;;;;;;;;;;5025958;28;20033;-75
2022/04/03 04:50:30;;;;;;;5.03;3.23;;;;;;;;;;5025939;28;20036;-77
2022/04/03 04:52:57;;;;;;;9.53;3.80;;;;;;;;;;5025804;28;20103;-75
2022/04/03 04:55:23;;;;;;;7.10;3.20;;;;;;;;;;5026024;28;20520;-76
2022/04/03 04:57:52;;;;;;;6.10;3.33;;;;;;;;;;5025817;28;20117;-76
2022/04/03 05:00:19;;;;;;;8.57;3.87;;;;;;;;;;5010594;28;20053;-75
2022/04/03 05:02:46;;;;;;;17.40;4.10;;;;;;;;;;5025692;28;20107;-76
2022/04/03 05:05:13;;;;;;;6.97;3.60;;;;;;;;;;5010841;28;20310;-74
2022/04/03 05:07:39;;;;;;;3.73;3.27;;;;;;;;;;5010608;28;20101;-76
2022/04/03 05:10:07;;;;;;;6.03;3.70;;;;;;;;;;5025668;28;20397;-75
2022/04/03 05:12:35;;;;;;;5.77;3.90;;;;;;;;;;5010434;28;20029;-76
2022/04/03 05:15:01;;;;;;;6.13;3.37;;;;;;;;;;5010257;28;20037;-77
2022/04/03 05:17:28;;;;;;;6.67;4.10;;;;;;;;;;5025150;28;20100;-74
2022/04/03 05:19:54;;;;;;;7.57;4.47;;;;;;;;;;5010054;28;20033;-75
2022/04/03 05:22:23;;;;;;;6.97;4.00;;;;;;;;;;5025598;28;20030;-75
2022/04/03 05:24:54;;;;;;;8.93;3.87;;;;;;;;;;5025148;28;20033;-75
2022/04/03 05:27:20;;;;;;;6.30;3.33;;;;;;;;;;5025473;28;20563;-75
2022/04/03 05:29:46;;;;;;;6.47;3.63;;;;;;;;;;5025090;28;20025;-75
2022/04/03 05:32:12;;;;;;;7.87;4.50;;;;;;;;;;5025586;28;20041;-75
2022/04/03 05:34:38;;;;;;;8.70;4.30;;;;;;;;;;5025305;28;20030;-75
2022/04/03 05:37:04;;;;;;;12.07;4.10;;;;;;;;;;4992584;28;20038;-75
2022/04/03 05:39:29;;;;;;;10.10;4.73;;;;;;;;;;5025228;28;20036;-74
2022/04/03 05:41:55;;;;;;;11.93;3.73;;;;;;;;;;5008303;28;20049;-74
2022/04/03 05:44:24;;;;;;;5.60;3.70;;;;;;;;;;5008651;28;20025;-74
2022/04/03 05:46:51;;;;;;;7.63;4.37;;;;;;;;;;5024817;28;20030;-75
2022/04/03 05:49:17;;;;;;;5.60;3.60;;;;;;;;;;5024727;28;20030;-74
2022/04/03 05:51:43;;;;;;;6.17;3.33;;;;;;;;;;5009320;28;20402;-74
2022/04/03 05:54:10;;;;;;;6.37;3.33;;;;;;;;;;5024567;28;20037;-74
2022/04/03 05:56:35;;;;;;;5.47;3.33;;;;;;;;;;5009581;28;20030;-74
2022/04/03 05:59:01;;;;;;;5.33;3.50;;;;;;;;;;5009411;28;20041;-74
2022/04/03 06:01:27;;;;;;;4.93;3.60;;;;;;;;;;5024586;28;20037;-73
2022/04/03 06:03:53;;;;;;;8.87;3.57;;;;;;;;;;5008198;28;20045;-75
2022/04/03 06:06:18;;;;;;;8.63;4.03;;;;;;;;;;5024772;28;20151;-75
2022/04/03 06:08:44;;;;;;;8.00;3.83;;;;;;;;;;5024604;28;20482;-74
2022/04/03 06:11:10;;;;;;;4.43;3.40;;;;;;;;;;5025053;28;20509;-74
2022/04/03 06:13:36;;;;;;;8.33;4.00;;;;;;;;;;4992220;28;20178;-74
2022/04/03 06:16:03;;;;;;;4.77;3.17;;;;;;;;;;5009364;28;20497;-74
2022/04/03 06:18:29;;;;;;;7.70;4.53;;;;;;;;;;5024641;28;20179;-74
2022/04/03 06:20:55;;;;;;;8.43;3.97;;;;;;;;;;5024470;28;20375;-74
2022/04/03 06:23:23;;;;;;;5.07;3.07;;;;;;;;;;5024506;28;20030;-76
2022/04/03 06:25:53;;;;;;;5.33;3.13;;;;;;;;;;5024503;28;20033;-75
2022/04/03 06:28:19;;;;;;;3.90;3.23;;;;;;;;;;5024938;28;20026;-75
2022/04/03 06:30:46;;;;;;;7.50;3.80;;;;;;;;;;5027541;28;20033;-74
2022/04/03 06:33:12;;;;;;;6.43;3.47;;;;;;;;;;5012165;28;20045;-74
2022/04/03 06:35:38;;;;;;;7.00;3.73;;;;;;;;;;5012035;28;20033;-74
2022/04/03 06:38:04;;;;;;;5.10;3.47;;;;;;;;;;5028762;28;20112;-72
2022/04/03 06:40:32;;;;;;;5.20;3.20;;;;;;;;;;5014586;28;20129;-74
2022/04/03 06:42:58;;;;;;;9.37;4.33;;;;;;;;;;5031452;28;20033;-75
2022/04/03 06:45:25;;;;;;;8.73;4.43;;;;;;;;;;5014650;28;20032;-74
2022/04/03 06:47:51;;;;;;;5.53;3.33;;;;;;;;;;5029355;28;20030;-75
2022/04/03 06:50:17;;;;;;;3.37;3.07;;;;;;;;;;5013994;28;20045;-74
2022/04/03 06:52:42;;;;;;;9.67;3.40;;;;;;;;;;5028122;28;20066;-74
2022/04/03 06:55:08;;;;;;;6.10;2.97;;;;;;;;;;5011404;28;20444;-74
2022/04/03 06:57:34;;;;;;;3.93;3.13;;;;;;;;;;5011409;28;20478;-75
2022/04/03 07:00:00;;;;;;;4.60;2.97;;;;;;;;;;5011118;28;20095;-75
2022/04/03 07:02:26;;;;;;;9.10;3.43;;;;;;;;;;5027714;28;20030;-75
2022/04/03 07:04:51;;;;;;;6.00;3.20;;;;;;;;;;5011223;28;20048;-75
2022/04/03 07:07:22;;;;;;;6.87;3.40;;;;;;;;;;5027912;28;20091;-75
2022/04/03 07:09:48;;;;;;;5.97;3.20;;;;;;;;;;5027281;28;20103;-74
2022/04/03 07:12:15;;;;;;;11.63;3.40;;;;;;;;;;5012744;28;20034;-78
2022/04/03 07:14:41;;;;;;;4.40;3.53;;;;;;;;;;5011809;28;20422;-76
2022/04/03 07:17:07;;;;;;;7.30;3.80;;;;;;;;;;5011414;28;20058;-76
2022/04/03 07:19:33;;;;;;;4.43;2.80;;;;;;;;;;5028891;28;20036;-77
2022/04/03 07:22:00;;;;;;;8.20;3.53;;;;;;;;;;5012989;28;20022;-75
2022/04/03 07:24:27;;;;;;;10.70;3.80;;;;;;;;;;5011913;28;20076;-77
2022/04/03 07:26:53;;;;;;;5.87;3.70;;;;;;;;;;4995165;28;20401;-76
2022/04/03 07:29:21;;;;;;;6.90;3.23;;;;;;;;;;5028102;28;20489;-74
2022/04/03 07:31:48;;;;;;;7.63;3.73;;;;;;;;;;5027188;28;20049;-75
2022/04/03 07:34:13;;;;;;;6.97;3.00;;;;;;;;;;5012298;28;20076;-73
2022/04/03 07:36:39;;;;;;;5.77;3.20;;;;;;;;;;5011439;28;20060;-75
2022/04/03 07:39:04;;;;;;;4.37;3.20;;;;;;;;;;5012286;28;20034;-76
2022/04/03 07:41:30;;;;;;;9.73;3.50;;;;;;;;;;5011032;28;20525;-76
2022/04/03 07:43:56;;;;;;;6.63;3.70;;;;;;;;;;5027681;28;20030;-76
2022/04/03 07:46:21;;;;;;;5.70;3.20;;;;;;;;;;5027020;28;20041;-75
2022/04/03 07:48:47;;;;;;;3.57;2.50;;;;;;;;;;5026973;28;20022;-76
2022/04/03 07:51:13;;;;;;;3.90;2.50;;;;;;;;;;5010723;28;20057;-75
2022/04/03 07:53:39;;;;;;;2.87;2.27;;;;;;;;;;5027266;28;20030;-75
2022/04/03 07:56:05;;;;;;;6.67;3.10;;;;;;;;;;5011834;28;20034;-75
2022/04/03 07:58:35;;;;;;;8.13;3.60;;;;;;;;;;5011638;28;20088;-75
2022/04/03 08:01:01;;;;;;;3.97;2.90;;;;;;;;;;5026460;28;20026;-74
2022/04/03 08:03:28;;;;;;;4.57;2.07;;;;;;;;;;5010352;28;20092;-75
2022/04/03 08:05:55;;;;;;;4.17;2.00;;;;;;;;;;5011473;28;20032;-74
2022/04/03 08:08:22;;;;;;;3.27;2.10;;;;;;;;;;5027065;28;20068;-75
2022/04/03 08:10:48;;;;;;;4.87;2.50;;;;;;;;;;5026876;28;20022;-74
2022/04/03 08:13:15;;;;;;;2.80;1.87;;;;;;;;;;4994242;28;20025;-75
2022/04/03 08:15:41;;;;;;;4.17;2.30;;;;;;;;;;5010742;28;20064;-75
2022/04/03 08:18:07;;;;;;;7.43;2.50;;;;;;;;;;5027109;28;20038;-75
2022/04/03 08:20:33;;;;;;;2.30;2.00;;;;;;;;;;5005751;28;20030;-75
2022/04/03 08:23:03;;;;;;;2.87;2.47;;;;;;;;;;5010403;28;20068;-75
2022/04/03 08:25:30;;;;;;;5.87;2.60;;;;;;;;;;4996723;28;20042;-74
2022/04/03 08:27:56;;;;;;;7.53;2.10;;;;;;;;;;5010290;28;20030;-74
2022/04/03 08:30:30;;;;;;;2.27;1.97;;;;;;;;;;5008721;28;20041;-74
2022/04/03 08:32:57;;;;;;;1.70;1.60;;;;;;;;;;4991186;28;20030;-75
2022/04/03 08:35:26;;;;;;;6.63;2.00;;;;;;;;;;5007229;28;20023;-74
2022/04/03 08:37:52;;;;;;;4.77;2.00;;;;;;;;;;4990470;28;20034;-75
2022/04/03 08:40:20;;;;;;;2.50;1.73;;;;;;;;;;5006477;28;20101;-73
2022/04/03 08:42:45;;;;;;;2.03;1.60;;;;;;;;;;5006264;28;20030;-75
2022/04/03 08:45:11;;;;;;;4.20;2.00;;;;;;;;;;4991053;28;20092;-75
2022/04/03 08:47:46;;;;;;;2.07;1.57;;;;;;;;;;5006086;28;20436;-74
2022/04/03 08:50:13;;;;;;;2.90;2.03;;;;;;;;;;4989558;28;20502;-76
2022/04/03 08:52:44;;;;;;;2.33;1.47;;;;;;;;;;5005432;28;20030;-74
2022/04/03 08:55:10;;;;;;;3.53;1.90;;;;;;;;;;4991053;28;20034;-75
2022/04/03 08:57:36;;;;;;;7.40;1.97;;;;;;;;;;5006013;28;20238;-74
2022/04/03 09:00:01;;;;;;;2.23;1.50;;;;;;;;;;5005711;28;20034;-75
2022/04/03 09:02:27;;;;;;;1.50;1.40;;;;;;;;;;5006043;28;20486;-74
2022/04/03 09:04:53;;;;;;;5.30;1.80;;;;;;;;;;5005835;28;20049;-75
2022/04/03 09:07:19;;;;;;;2.40;1.73;;;;;;;;;;4990910;28;20029;-75
2022/04/03 09:09:47;;;;;;;1.43;1.33;;;;;;;;;;5006290;28;20045;-74
2022/04/03 09:12:16;;;;;;;3.90;1.50;;;;;;;;;;4989687;28;20162;-74
2022/04/03 09:14:55;;;;;;;2.33;1.07;;;;;;;;;;5006121;28;20061;-75
2022/04/03 09:17:42;;;;;;;2.40;1.27;;;;;;;;;;5005656;28;20631;-74
2022/04/03 09:20:10;;;;;;;1.43;1.20;;;;;;;;;;4992679;28;20057;-74
2022/04/03 09:22:37;;;;;;;1.70;1.13;;;;;;;;;;5025413;28;20518;-74
2022/04/03 09:25:12;;;;;;;2.83;1.23;;;;;;;;;;5025368;28;20026;-74
2022/04/03 09:27:55;;;;;;;2.83;1.37;;;;;;;;;;5025396;28;20033;-74
2022/04/03 09:30:28;;;;;;;1.30;1.20;;;;;;;;;;5025538;28;20425;-75
2022/04/03 09:32:55;;;;;;;2.87;1.57;;;;;;;;;;5010137;28;20453;-74
2022/04/03 09:35:24;;;;;;;1.97;1.47;;;;;;;;;;5009130;28;20069;-75
2022/04/03 09:38:14;;;;;;;5.00;1.93;;;;;;;;;;5025100;28;20128;-75
2022/04/03 09:40:41;;;;;;;7.60;2.53;;;;;;;;;;5008938;28;20049;-75
2022/04/03 09:43:22;;;;;;;4.60;2.50;;;;;;;;;;5008353;28;20061;-75
2022/04/03 09:45:53;;;;;;;4.10;2.37;;;;;;;;;;5008481;28;20497;-74
2022/04/03 09:48:25;;;;;;;3.20;1.53;;;;;;;;;;5025205;28;20502;-76
2022/04/03 09:51:10;;;;;;;3.43;2.43;;;;;;;;;;5009914;28;20025;-76
2022/04/03 09:53:51;;;;;;;2.87;1.90;;;;;;;;;;5008512;28;20466;-75
2022/04/03 09:56:31;;;;;;;5.17;2.10;;;;;;;;;;5025131;28;20333;-77
2022/04/03 09:58:59;;;;;;;3.43;1.87;;;;;;;;;;5025077;28;20065;-77
2022/04/03 10:01:41;;;;;;;3.13;1.70;;;;;;;;;;5009717;28;20382;-75
2022/04/03 10:04:14;;;;;;;3.33;2.38;;;;;;;;;;5025348;28;20030;-76
2022/04/03 10:06:41;;;;;;;;;;;;;;;;;;5013471;28;20034;-75
2022/04/03 10:09:11;;;;;;;5.30;1.57;;;;;;;;;;5013874;28;19957;-76
2022/04/03 10:11:42;;;;;;;2.40;1.67;;;;;;;;;;5014040;28;20052;-76
2022/04/03 10:14:10;;;;;;;4.20;1.60;;;;;;;;;;5028854;28;20461;-77
2022/04/03 10:16:35;;;;;;;2.70;2.03;;;;;;;;;;5029251;28;20036;-76
2022/04/03 10:19:02;;;;;;;5.33;1.90;;;;;;;;;;5013589;28;20545;-75
2022/04/03 10:21:37;;;;;;;2.63;1.80;;;;;;;;;;4996170;28;20030;-75
2022/04/03 10:24:29;;;;;;;3.53;1.70;;;;;;;;;;5012116;28;20060;-75
2022/04/03 10:27:15;;;;;;;6.07;2.23;;;;;;;;;;5029106;28;20079;-76
2022/04/03 10:29:43;;;;;;;3.77;2.37;;;;;;;;;;5029024;28;20018;-76
2022/04/03 10:32:20;;;;;;;3.53;1.67;;;;;;;;;;5028805;28;20497;-75
2022/04/03 10:34:49;;;;;;;2.00;1.40;;;;;;;;;;5014813;28;20057;-76
2022/04/03 10:37:29;;;;;;;1.87;1.23;;;;;;;;;;5014684;28;20028;-76
2022/04/03 10:40:04;;;;;;;3.00;1.53;;;;;;;;;;5016953;28;20026;-76
2022/04/03 10:42:30;;;;;;;5.47;1.83;;;;;;;;;;5017797;28;20492;-77
2022/04/03 10:45:10;;;;;;;2.47;1.50;;;;;;;;;;5016391;28;20120;-76
2022/04/03 10:47:36;;;;;;;6.63;1.97;;;;;;;;;;5013558;28;20033;-78
2022/04/03 10:50:05;;;;;;;5.33;1.77;;;;;;;;;;5028320;28;20064;-77
2022/04/03 10:52:36;;;;;;;5.30;2.33;;;;;;;;;;5012839;28;20025;-76
2022/04/03 10:55:11;;;;;;;2.35;1.92;;;;;;;;;;5011720;28;20385;-75
2022/04/03 10:57:42;;;;;;;3.90;1.93;;;;;;;;;;5011669;28;20065;-77
2022/04/03 11:00:14;;;;;;;3.27;1.90;;;;;;;;;;5011481;28;20030;-76
2022/04/03 11:02:40;;;;;;;3.40;2.08;;;;;;;;;;5012099;28;20044;-76
2022/04/03 11:05:29;;;;;;;5.77;2.00;;;;;;;;;;5011279;28;20064;-74
2022/04/03 11:08:04;;;;;;;6.70;2.20;;;;;;;;;;5011027;28;20141;-74
2022/04/03 11:10:54;;;;;;;2.93;1.73;;;;;;;;;;5011495;28;20033;-75
2022/04/03 11:13:29;;;;;;;4.93;1.97;;;;;;;;;;5027646;28;20026;-75
2022/04/03 11:16:04;;;;;;;10.37;2.30;;;;;;;;;;5010862;28;20026;-77
2022/04/03 11:18:39;;;;;;;3.53;1.60;;;;;;;;;;5011396;28;20100;-76
2022/04/03 11:21:27;;;;;;;2.50;1.30;;;;;;;;;;5007864;28;20026;-75
2022/04/03 11:23:59;;;;;;;4.50;1.77;;;;;;;;;;5008409;28;20049;-77
2022/04/03 11:26:25;;;;;;;2.08;1.35;;;;;;;;;;4992949;28;20375;-75
2022/04/03 11:28:52;;;;;;;1.27;1.17;;;;;;;;;;4994820;28;20034;-75
2022/04/03 11:31:18;;;;;;;2.30;1.70;;;;;;;;;;4991693;28;20025;-77
2022/04/03 11:33:46;;;;;;;2.63;1.50;;;;;;;;;;5008059;28;20486;-76
2022/04/03 11:36:24;;;;;;;18.07;3.37;;;;;;;;;;4991561;28;20026;-78
2022/04/03 11:38:52;;;;;;;2.37;1.60;;;;;;;;;;4976051;28;20045;-77
2022/04/03 11:41:27;;;;;;;2.70;1.80;;;;;;;;;;4992431;28;20038;-75
2022/04/03 11:44:05;;;;;;;2.07;1.87;;;;;;;;;;5007575;28;20030;-75
2022/04/03 11:46:51;;;;;;;2.30;1.80;;;;;;;;;;4991597;28;20082;-76
2022/04/03 11:49:30;;;;;;;2.93;2.13;;;;;;;;;;5007492;28;20121;-76
2022/04/03 11:52:09;;;;;;;4.07;2.50;;;;;;;;;;4992488;28;20499;-76
2022/04/03 11:54:36;;;;;;;8.33;2.13;;;;;;;;;;5007366;28;20045;-74
2022/04/03 11:57:05;;;;;;;3.03;2.23;;;;;;;;;;4991426;28;20042;-76
2022/04/03 11:59:35;;;;;;;2.20;1.77;;;;;;;;;;5007650;28;20037;-76
2022/04/03 12:02:11;;;;;;;3.03;1.80;;;;;;;;;;4993070;28;20057;-75
2022/04/03 12:04:43;;;;;;;2.90;2.00;;;;;;;;;;5007592;28;20026;-76
2022/04/03 12:07:13;;;;;;;7.73;3.67;;;;;;;;;;5007363;28;20034;-76
2022/04/03 12:09:43;;;;;;;4.27;1.80;;;;;;;;;;5007572;28;20022;-77
2022/04/03 12:12:10;;;;;;;4.07;1.97;;;;;;;;;;4992341;28;20220;-77
2022/04/03 12:14:41;;;;;;;9.50;2.13;;;;;;;;;;4990976;28;20371;-76
2022/04/03 12:17:09;;;;;;;2.33;1.50;;;;;;;;;;5006499;28;20064;-77
2022/04/03 12:19:50;;;;;;;3.43;1.47;;;;;;;;;;5006874;28;20038;-76
2022/04/03 12:22:19;;;;;;;2.07;1.50;;;;;;;;;;4990972;28;20065;-76
2022/04/03 12:24:45;;;;;;;2.57;2.13;;;;;;;;;;4974332;28;20034;-76
2022/04/03 12:27:16;;;;;;;3.20;2.10;;;;;;;;;;5005912;28;20033;-76
2022/04/03 12:29:49;;;;;;;4.53;1.93;;;;;;;;;;4991840;28;20038;-79
2022/04/03 12:32:29;;;;;;;3.03;2.00;;;;;;;;;;4991986;28;20021;-77
2022/04/03 12:34:55;;;;;;;3.77;1.90;;;;;;;;;;4975543;28;20061;-77
2022/04/03 12:37:21;;;;;;;4.33;2.67;;;;;;;;;;4992072;28;20491;-77
2022/04/03 12:39:56;;;;;;;2.03;1.70;;;;;;;;;;5006566;28;20026;-76
2022/04/03 12:42:24;;;;;;;2.60;2.00;;;;;;;;;;4989854;28;20058;-77
2022/04/03 12:44:52;;;;;;;5.03;2.20;;;;;;;;;;4990858;28;20390;-76
2022/04/03 12:47:23;;;;;;;2.10;1.60;;;;;;;;;;4989531;28;20049;-76
2022/04/03 12:50:12;;;;;;;3.20;1.60;;;;;;;;;;4991444;28;20026;-75
2022/04/03 12:52:49;;;;;;;2.20;2.00;;;;;;;;;;5006617;28;20029;-76
2022/04/03 12:55:21;;;;;;;3.17;1.73;;;;;;;;;;5006186;28;20030;-77
2022/04/03 12:58:25;;;;;;;2.17;1.58;;;;;;;;;;4989851;28;20037;-76
2022/04/03 13:00:58;;;;;;;4.37;1.80;;;;;;;;;;4989386;28;20046;-75
2022/04/03 13:03:31;;;;;;;5.10;2.07;;;;;;;;;;5006157;28;20384;-76
2022/04/03 13:05:59;;;;;;;1.80;1.57;;;;;;;;;;5006364;28;20331;-77
2022/04/03 13:08:25;;;;;;;3.87;1.80;;;;;;;;;;4989542;28;20666;-75
2022/04/03 13:10:58;;;;;;;1.43;1.33;;;;;;;;;;5006022;28;20084;-77
2022/04/03 13:13:29;;;;;;;2.70;1.73;;;;;;;;;;4991441;28;20380;-77
2022/04/03 13:15:55;;;;;;;1.83;1.70;;;;;;;;;;5008296;28;20029;-77
2022/04/03 13:18:22;;;;;;;2.10;1.73;;;;;;;;;;4995785;28;20280;-77
2022/04/03 13:20:51;;;;;;;2.40;1.57;;;;;;;;;;5001591;28;20030;-76
2022/04/03 13:23:18;;;;;;;2.10;1.90;;;;;;;;;;5038920;28;20040;-76
2022/04/03 13:25:45;;;;;;;1.90;1.37;;;;;;;;;;5041773;28;20518;-76
2022/04/03 13:28:12;;;;;;;3.87;1.83;;;;;;;;;;5021246;28;20088;-75
2022/04/03 13:30:38;;;;;;;1.77;1.40;;;;;;;;;;4995078;28;20045;-75
2022/04/03 13:33:03;;;;;;;2.57;1.43;;;;;;;;;;5010796;28;20037;-77
2022/04/03 13:35:29;;;;;;;3.60;1.90;;;;;;;;;;5010327;28;20021;-77
2022/04/03 13:37:54;;;;;;;2.20;1.50;;;;;;;;;;5025560;28;20052;-75
2022/04/03 13:40:20;;;;;;;2.53;1.80;;;;;;;;;;5025356;28;20112;-77
2022/04/03 13:42:46;;;;;;;4.30;2.03;;;;;;;;;;5025494;28;20145;-77
2022/04/03 13:45:12;;;;;;;2.73;2.00;;;;;;;;;;5009782;28;20034;-75
2022/04/03 13:47:39;;;;;;;4.30;1.87;;;;;;;;;;5025157;28;20033;-76
2022/04/03 13:50:05;;;;;;;3.13;2.00;;;;;;;;;;5025306;28;20111;-76
2022/04/03 13:52:31;;;;;;;3.63;2.20;;;;;;;;;;5008484;28;20026;-77
2022/04/03 13:54:57;;;;;;;2.00;1.70;;;;;;;;;;5025110;28;20041;-75
2022/04/03 13:57:23;;;;;;;2.87;1.70;;;;;;;;;;5025119;28;20021;-76
2022/04/03 13:59:50;;;;;;;4.57;2.63;;;;;;;;;;5025110;28;20116;-77
2022/04/03 14:02:16;;;;;;;6.07;2.37;;;;;;;;;;5008537;28;20029;-76
2022/04/03 14:04:43;;;;;;;2.53;1.93;;;;;;;;;;5008672;28;20089;-77
2022/04/03 14:07:10;;;;;;;3.07;2.17;;;;;;;;;;5025671;28;20026;-76
2022/04/03 14:09:37;;;;;;;3.03;1.80;;;;;;;;;;5010722;28;20037;-78
2022/04/03 14:12:03;;;;;;;4.40;2.00;;;;;;;;;;5025565;28;20026;-77
2022/04/03 14:14:28;;;;;;;3.07;1.80;;;;;;;;;;5009839;28;20030;-77
2022/04/03 14:16:54;;;;;;;3.10;1.60;;;;;;;;;;5024762;28;20029;-76
2022/04/03 14:19:20;;;;;;;2.10;1.90;;;;;;;;;;5009945;28;20451;-76
2022/04/03 14:21:45;;;;;;;3.30;2.17;;;;;;;;;;5024641;28;20030;-76
2022/04/03 14:24:11;;;;;;;4.00;2.47;;;;;;;;;;5024584;28;20030;-76
2022/04/03 14:26:37;;;;;;;3.20;1.80;;;;;;;;;;5008306;28;20040;-77
2022/04/03 14:29:04;;;;;;;2.33;1.90;;;;;;;;;;5024659;28;20057;-76
2022/04/03 14:31:30;;;;;;;2.70;1.90;;;;;;;;;;5009714;28;20084;-76
2022/04/03 14:33:57;;;;;;;4.83;2.47;;;;;;;;;;5024901;28;20026;-77
2022/04/03 14:36:22;;;;;;;2.43;2.23;;;;;;;;;;5024745;28;20022;-77
2022/04/03 14:38:48;;;;;;;3.10;1.97;;;;;;;;;;5010082;28;20084;-77
2022/04/03 14:41:14;;;;;;;4.00;2.10;;;;;;;;;;5025629;28;20072;-77
2022/04/03 14:43:40;;;;;;;4.73;1.83;;;;;;;;;;5026901;28;20053;-77
2022/04/03 14:46:06;;;;;;;6.20;2.03;;;;;;;;;;5015346;28;20026;-77
2022/04/03 14:48:32;;;;;;;3.90;1.75;;;;;;;;;;5033163;28;20030;-77